Time;durP1;ratioP1;P1;durP2;ratioP2;P2;SDS_P1;SDS_P2;PMS_P1;PMS_P2;Temp;Humidity;BMP_temperature;BMP_pressure;BME280_temperature;BME280_humidity;BME280_pressure;Samples;Min_cycle;Max_cycle;Signal;HPM_P1;HPM_P2
2023/08/01 00:00:13;;;;;;;3.93;2.50;;;;;;;;;;5035078;28;20484;-68
2023/08/01 00:02:43;;;;;;;3.50;3.20;;;;;;;;;;5034522;28;20528;-68
2023/08/01 00:05:10;;;;;;;2.97;2.70;;;;;;;;;;5035272;28;20450;-68
2023/08/01 00:07:37;;;;;;;5.93;2.50;;;;;;;;;;5034753;28;20445;-68
2023/08/01 00:10:05;;;;;;;3.90;2.57;;;;;;;;;;5034461;28;20935;-68
2023/08/01 00:12:32;;;;;;;5.70;2.60;;;;;;;;;;5034892;28;20515;-68
2023/08/01 00:15:00;;;;;;;3.90;3.07;;;;;;;;;;5034340;28;20933;-68
2023/08/01 00:17:29;;;;;;;3.30;2.80;;;;;;;;;;5034327;28;20526;-68
2023/08/01 00:19:56;;;;;;;4.07;2.20;;;;;;;;;;5034166;28;20480;-68
2023/08/01 00:22:23;;;;;;;3.00;2.80;;;;;;;;;;5034398;28;20475;-68
2023/08/01 00:24:50;;;;;;;3.10;2.60;;;;;;;;;;5033904;28;20497;-68
2023/08/01 00:27:18;;;;;;;3.50;2.70;;;;;;;;;;5033983;28;20486;-68
2023/08/01 00:29:45;;;;;;;2.90;2.33;;;;;;;;;;5033989;28;20453;-68
2023/08/01 00:32:12;;;;;;;3.23;2.50;;;;;;;;;;5033926;28;20449;-68
2023/08/01 00:34:41;;;;;;;3.23;2.60;;;;;;;;;;5034717;28;20530;-68
2023/08/01 00:37:08;;;;;;;2.50;2.30;;;;;;;;;;5034147;28;20472;-68
2023/08/01 00:39:36;;;;;;;3.80;2.13;;;;;;;;;;5034136;28;20479;-68
2023/08/01 00:42:03;;;;;;;2.50;2.30;;;;;;;;;;5034452;28;20438;-68
2023/08/01 00:44:30;;;;;;;4.07;2.90;;;;;;;;;;5033824;28;20477;-68
2023/08/01 00:46:57;;;;;;;3.20;2.53;;;;;;;;;;5034176;28;20523;-70
2023/08/01 00:49:25;;;;;;;2.63;2.43;;;;;;;;;;5033642;28;20537;-69
2023/08/01 00:51:54;;;;;;;4.00;2.90;;;;;;;;;;5033713;28;21015;-68
2023/08/01 00:54:21;;;;;;;3.10;2.80;;;;;;;;;;5034075;28;20498;-68
2023/08/01 00:56:48;;;;;;;3.97;2.67;;;;;;;;;;5033709;28;20582;-68
2023/08/01 00:59:15;;;;;;;3.27;2.53;;;;;;;;;;5033697;28;20476;-68
2023/08/01 01:01:42;;;;;;;3.43;2.67;;;;;;;;;;5033725;28;20533;-68
2023/08/01 01:04:10;;;;;;;2.63;2.43;;;;;;;;;;5033482;28;20972;-68
2023/08/01 01:06:41;;;;;;;3.03;2.60;;;;;;;;;;5033617;28;20534;-68
2023/08/01 01:09:17;;;;;;;2.93;2.60;;;;;;;;;;5033298;28;20437;-68
2023/08/01 01:11:44;;;;;;;3.10;2.80;;;;;;;;;;5033664;28;20436;-68
2023/08/01 01:14:12;;;;;;;2.87;2.57;;;;;;;;;;5033229;28;20935;-68
2023/08/01 01:16:39;;;;;;;2.50;2.30;;;;;;;;;;5033606;28;20799;-68
2023/08/01 01:19:08;;;;;;;2.70;2.50;;;;;;;;;;5033341;28;20570;-68
2023/08/01 01:21:38;;;;;;;2.83;2.63;;;;;;;;;;5033542;28;20431;-68
2023/08/01 01:24:06;;;;;;;2.80;2.60;;;;;;;;;;5033081;28;20428;-69
2023/08/01 01:26:34;;;;;;;5.33;3.30;;;;;;;;;;5033784;28;20565;-68
2023/08/01 01:29:01;;;;;;;2.80;2.60;;;;;;;;;;5033326;28;20453;-69
2023/08/01 01:31:29;;;;;;;3.00;2.67;;;;;;;;;;5033141;28;20449;-68
2023/08/01 01:33:56;;;;;;;4.93;3.40;;;;;;;;;;5033299;28;20479;-68
2023/08/01 01:36:24;;;;;;;4.27;2.80;;;;;;;;;;5033130;28;21035;-68
2023/08/01 01:38:52;;;;;;;4.47;3.20;;;;;;;;;;5033173;28;20483;-68
2023/08/01 01:41:19;;;;;;;3.80;3.50;;;;;;;;;;5034078;28;20877;-69
2023/08/01 01:43:46;;;;;;;3.50;3.20;;;;;;;;;;5032912;28;20529;-68
2023/08/01 01:46:14;;;;;;;3.47;3.17;;;;;;;;;;5033334;28;20510;-68
2023/08/01 01:48:42;;;;;;;3.73;2.70;;;;;;;;;;5032827;28;20445;-69
2023/08/01 01:51:09;;;;;;;3.43;2.90;;;;;;;;;;5032998;28;20494;-68
2023/08/01 01:53:36;;;;;;;3.10;2.87;;;;;;;;;;5033123;28;20444;-69
2023/08/01 01:56:05;;;;;;;5.23;3.27;;;;;;;;;;5033671;28;20447;-68
2023/08/01 01:58:32;;;;;;;3.17;2.47;;;;;;;;;;5033156;28;20450;-69
2023/08/01 02:00:59;;;;;;;4.40;3.67;;;;;;;;;;5032774;28;20484;-68
2023/08/01 02:03:27;;;;;;;3.50;3.20;;;;;;;;;;5032763;28;20484;-68
2023/08/01 02:05:54;;;;;;;6.43;3.00;;;;;;;;;;5033396;28;20800;-68
2023/08/01 02:08:21;;;;;;;3.10;2.90;;;;;;;;;;5032980;28;20450;-68
2023/08/01 02:10:49;;;;;;;4.07;3.03;;;;;;;;;;5033255;28;20440;-68
2023/08/01 02:13:18;;;;;;;3.83;3.30;;;;;;;;;;5036479;28;20448;-69
2023/08/01 02:15:45;;;;;;;4.27;2.83;;;;;;;;;;5037473;28;20470;-69
2023/08/01 02:18:12;;;;;;;3.90;3.43;;;;;;;;;;5036418;28;20449;-69
2023/08/01 02:20:40;;;;;;;5.27;3.60;;;;;;;;;;5037561;28;20809;-68
2023/08/01 02:23:07;;;;;;;5.63;4.37;;;;;;;;;;5036802;28;20524;-69
2023/08/01 02:25:39;;;;;;;4.80;4.17;;;;;;;;;;5036255;28;20474;-69
2023/08/01 02:28:06;;;;;;;5.80;3.73;;;;;;;;;;5036893;28;20502;-69
2023/08/01 02:30:35;;;;;;;4.63;4.10;;;;;;;;;;5036197;28;20442;-69
2023/08/01 02:33:02;;;;;;;5.17;4.50;;;;;;;;;;5036539;28;20442;-69
2023/08/01 02:35:30;;;;;;;4.00;3.70;;;;;;;;;;5036095;28;20441;-69
2023/08/01 02:37:57;;;;;;;4.10;3.77;;;;;;;;;;5036474;28;20441;-68
2023/08/01 02:40:25;;;;;;;3.90;3.50;;;;;;;;;;5036354;28;20493;-68
2023/08/01 02:42:53;;;;;;;4.70;4.30;;;;;;;;;;5036154;28;20795;-68
2023/08/01 02:45:20;;;;;;;5.80;4.20;;;;;;;;;;5036247;28;20526;-68
2023/08/01 02:47:48;;;;;;;4.70;4.33;;;;;;;;;;5036433;28;20473;-68
2023/08/01 02:50:16;;;;;;;4.70;4.20;;;;;;;;;;5036179;28;20540;-68
2023/08/01 02:52:43;;;;;;;4.70;4.30;;;;;;;;;;5036245;28;20534;-68
2023/08/01 02:55:10;;;;;;;6.97;4.40;;;;;;;;;;5036047;28;20450;-68
2023/08/01 02:57:38;;;;;;;4.80;4.40;;;;;;;;;;5036147;28;20476;-68
2023/08/01 03:00:05;;;;;;;5.80;5.20;;;;;;;;;;5035569;28;20474;-68
2023/08/01 03:02:33;;;;;;;6.67;5.33;;;;;;;;;;5035792;28;20452;-68
2023/08/01 03:05:04;;;;;;;6.50;5.90;;;;;;;;;;5035637;28;20927;-68
2023/08/01 03:07:31;;;;;;;6.57;5.90;;;;;;;;;;5036266;28;20425;-68
2023/08/01 03:09:59;;;;;;;7.80;5.50;;;;;;;;;;5035512;28;20458;-68
2023/08/01 03:12:26;;;;;;;8.70;6.00;;;;;;;;;;5035576;28;20441;-68
2023/08/01 03:14:53;;;;;;;7.47;6.77;;;;;;;;;;5035742;28;20444;-67
2023/08/01 03:17:20;;;;;;;10.10;6.50;;;;;;;;;;5035702;28;20445;-68
2023/08/01 03:19:48;;;;;;;8.67;7.07;;;;;;;;;;5035220;28;21008;-68
2023/08/01 03:22:17;;;;;;;7.93;6.37;;;;;;;;;;5036118;28;20444;-68
2023/08/01 03:24:44;;;;;;;14.37;6.63;;;;;;;;;;5034110;28;20441;-68
2023/08/01 03:27:12;;;;;;;7.30;6.43;;;;;;;;;;5035963;28;20538;-68
2023/08/01 03:29:39;;;;;;;7.77;6.00;;;;;;;;;;5035147;28;20543;-68
2023/08/01 03:32:06;;;;;;;9.00;6.60;;;;;;;;;;5035205;28;20444;-67
2023/08/01 03:34:34;;;;;;;7.90;7.07;;;;;;;;;;5035597;28;20448;-68
2023/08/01 03:37:01;;;;;;;11.03;7.40;;;;;;;;;;5035411;28;20489;-67
2023/08/01 03:39:29;;;;;;;9.23;7.10;;;;;;;;;;5035232;28;20441;-68
2023/08/01 03:41:56;;;;;;;9.33;7.57;;;;;;;;;;5035820;28;20533;-68
2023/08/01 03:44:24;;;;;;;8.87;6.67;;;;;;;;;;5035187;28;20482;-68
2023/08/01 03:46:51;;;;;;;11.80;8.13;;;;;;;;;;5035466;28;20430;-67
2023/08/01 03:49:18;;;;;;;8.47;6.57;;;;;;;;;;5035087;28;20533;-68
2023/08/01 03:51:46;;;;;;;8.50;7.70;;;;;;;;;;5019614;28;20932;-68
2023/08/01 03:54:13;;;;;;;8.13;7.33;;;;;;;;;;5014741;28;20435;-68
2023/08/01 03:56:43;;;;;;;13.73;8.30;;;;;;;;;;5014917;28;20457;-69
2023/08/01 03:59:10;;;;;;;9.60;8.07;;;;;;;;;;5014363;28;20441;-69
2023/08/01 04:01:37;;;;;;;16.90;9.20;;;;;;;;;;5014311;28;20574;-68
2023/08/01 04:04:05;;;;;;;10.63;8.20;;;;;;;;;;5015029;28;20800;-68
2023/08/01 04:06:32;;;;;;;11.90;7.43;;;;;;;;;;5014347;28;20921;-68
2023/08/01 04:09:00;;;;;;;11.00;9.00;;;;;;;;;;5014770;28;20532;-68
2023/08/01 04:11:27;;;;;;;11.10;8.93;;;;;;;;;;5014723;28;20451;-68
2023/08/01 04:13:55;;;;;;;10.83;9.17;;;;;;;;;;5014814;28;20449;-68
2023/08/01 04:16:23;;;;;;;13.90;9.50;;;;;;;;;;5014382;28;20448;-68
2023/08/01 04:18:50;;;;;;;11.70;9.63;;;;;;;;;;5014535;28;20435;-68
2023/08/01 04:21:17;;;;;;;11.67;8.70;;;;;;;;;;5014008;28;20992;-68
2023/08/01 04:23:45;;;;;;;13.23;8.80;;;;;;;;;;5014312;28;20999;-67
2023/08/01 04:26:12;;;;;;;14.20;8.50;;;;;;;;;;5013964;28;20481;-68
2023/08/01 04:28:39;;;;;;;11.97;8.77;;;;;;;;;;5014471;28;20449;-68
2023/08/01 04:31:08;;;;;;;10.20;8.73;;;;;;;;;;5014255;28;20511;-68
2023/08/01 04:33:35;;;;;;;12.33;9.60;;;;;;;;;;5014415;28;20438;-67
2023/08/01 04:36:02;;;;;;;13.63;9.37;;;;;;;;;;5014108;28;20469;-68
2023/08/01 04:38:29;;;;;;;17.90;9.93;;;;;;;;;;5013954;28;20447;-68
2023/08/01 04:40:57;;;;;;;11.47;10.10;;;;;;;;;;5013714;28;20521;-68
2023/08/01 04:43:24;;;;;;;11.20;9.13;;;;;;;;;;5014111;28;20442;-68
2023/08/01 04:45:51;;;;;;;18.20;9.73;;;;;;;;;;5013496;28;20534;-68
2023/08/01 04:48:20;;;;;;;18.07;9.80;;;;;;;;;;5013869;28;20940;-68
2023/08/01 04:50:47;;;;;;;23.77;9.90;;;;;;;;;;5013722;28;20546;-68
2023/08/01 04:53:14;;;;;;;16.93;9.97;;;;;;;;;;5013515;28;20443;-68
2023/08/01 04:55:42;;;;;;;14.90;8.83;;;;;;;;;;5013549;28;20457;-68
2023/08/01 04:58:09;;;;;;;11.80;8.67;;;;;;;;;;5013302;28;21027;-68
2023/08/01 05:00:36;;;;;;;15.73;9.50;;;;;;;;;;5013774;28;20568;-68
2023/08/01 05:03:03;;;;;;;20.80;9.80;;;;;;;;;;5013999;28;20478;-68
2023/08/01 05:05:32;;;;;;;13.33;10.63;;;;;;;;;;5014072;28;20805;-71
2023/08/01 05:07:59;;;;;;;15.13;10.50;;;;;;;;;;5013233;28;20476;-78
2023/08/01 05:10:26;;;;;;;22.60;11.40;;;;;;;;;;5013781;28;20569;-76
2023/08/01 05:12:53;;;;;;;15.23;9.73;;;;;;;;;;5013558;28;20485;-72
2023/08/01 05:15:21;;;;;;;14.77;9.87;;;;;;;;;;5013801;28;20451;-72
2023/08/01 05:17:48;;;;;;;16.73;10.57;;;;;;;;;;5013745;28;20440;-72
2023/08/01 05:20:15;;;;;;;20.63;10.23;;;;;;;;;;5013503;28;20835;-72
2023/08/01 05:22:44;;;;;;;13.83;9.20;;;;;;;;;;5013615;28;20532;-72
2023/08/01 05:25:11;;;;;;;21.70;11.47;;;;;;;;;;5013378;28;20505;-72
2023/08/01 05:27:38;;;;;;;24.40;11.83;;;;;;;;;;5013217;28;20530;-72
2023/08/01 05:30:06;;;;;;;20.10;10.93;;;;;;;;;;5013429;28;20456;-72
2023/08/01 05:32:33;;;;;;;15.50;11.50;;;;;;;;;;5013458;28;20449;-72
2023/08/01 05:35:00;;;;;;;20.53;12.83;;;;;;;;;;5013609;28;20533;-72
2023/08/01 05:37:27;;;;;;;28.97;11.70;;;;;;;;;;5013252;28;20815;-72
2023/08/01 05:39:56;;;;;;;15.23;11.13;;;;;;;;;;5013492;28;20443;-72
2023/08/01 05:42:23;;;;;;;14.53;11.50;;;;;;;;;;5013808;28;20464;-72
2023/08/01 05:44:50;;;;;;;18.43;12.40;;;;;;;;;;5013220;28;20445;-71
2023/08/01 05:47:18;;;;;;;17.30;11.47;;;;;;;;;;5015429;28;20439;-73
2023/08/01 05:49:45;;;;;;;19.77;12.00;;;;;;;;;;5017692;28;20522;-73
2023/08/01 05:52:12;;;;;;;16.87;12.33;;;;;;;;;;5017948;28;20540;-72
2023/08/01 05:54:39;;;;;;;19.03;11.47;;;;;;;;;;5018137;28;20454;-73
2023/08/01 05:57:08;;;;;;;20.47;11.10;;;;;;;;;;5017729;28;20538;-73
2023/08/01 05:59:36;;;;;;;17.30;12.10;;;;;;;;;;5017156;28;20440;-73
2023/08/01 06:02:03;;;;;;;20.00;13.50;;;;;;;;;;5016886;28;21001;-73
2023/08/01 06:04:30;;;;;;;20.50;12.47;;;;;;;;;;5017609;28;20533;-73
2023/08/01 06:06:57;;;;;;;16.53;12.63;;;;;;;;;;5016959;28;20441;-73
2023/08/01 06:09:24;;;;;;;23.70;12.63;;;;;;;;;;5017296;28;20528;-73
2023/08/01 06:11:52;;;;;;;19.87;13.00;;;;;;;;;;5017191;28;20473;-73
2023/08/01 06:14:20;;;;;;;18.13;12.90;;;;;;;;;;5017227;28;20541;-73
2023/08/01 06:16:47;;;;;;;19.80;12.90;;;;;;;;;;5017124;28;20451;-73
2023/08/01 06:19:14;;;;;;;24.37;16.20;;;;;;;;;;5017745;28;20535;-72
2023/08/01 06:21:42;;;;;;;18.67;12.80;;;;;;;;;;5017119;28;20477;-73
2023/08/01 06:24:10;;;;;;;18.40;13.93;;;;;;;;;;5017241;28;20499;-71
2023/08/01 06:26:37;;;;;;;15.70;12.50;;;;;;;;;;5016309;28;20475;-72
2023/08/01 06:29:04;;;;;;;15.33;12.23;;;;;;;;;;5017081;28;20520;-70
2023/08/01 06:31:33;;;;;;;22.03;12.80;;;;;;;;;;5017050;28;20538;-70
2023/08/01 06:34:03;;;;;;;15.20;12.60;;;;;;;;;;5016777;28;20475;-70
2023/08/01 06:36:32;;;;;;;17.33;11.83;;;;;;;;;;5016501;28;20473;-70
2023/08/01 06:38:59;;;;;;;19.37;13.60;;;;;;;;;;5016632;28;20497;-71
2023/08/01 06:41:27;;;;;;;16.97;12.73;;;;;;;;;;5017089;28;20485;-72
2023/08/01 06:43:54;;;;;;;19.97;14.43;;;;;;;;;;5016563;28;20442;-71
2023/08/01 06:46:21;;;;;;;15.43;13.17;;;;;;;;;;5016801;28;20524;-71
2023/08/01 06:48:50;;;;;;;22.90;15.13;;;;;;;;;;5016019;28;20943;-71
2023/08/01 06:51:17;;;;;;;16.80;14.83;;;;;;;;;;5016391;28;20460;-70
2023/08/01 06:53:44;;;;;;;26.83;15.63;;;;;;;;;;5016486;28;20442;-73
2023/08/01 06:56:11;;;;;;;19.97;14.20;;;;;;;;;;5016632;28;20545;-71
2023/08/01 06:58:39;;;;;;;18.90;15.13;;;;;;;;;;5015729;28;20493;-72
2023/08/01 07:01:06;;;;;;;22.90;16.63;;;;;;;;;;5016167;28;20485;-72
2023/08/01 07:03:33;;;;;;;22.67;16.53;;;;;;;;;;5015704;28;20450;-71
2023/08/01 07:06:03;;;;;;;24.80;16.13;;;;;;;;;;5016376;28;20525;-71
2023/08/01 07:08:30;;;;;;;20.33;14.73;;;;;;;;;;5016009;28;20456;-73
2023/08/01 07:11:00;;;;;;;22.50;15.23;;;;;;;;;;5015775;28;20457;-71
2023/08/01 07:13:27;;;;;;;32.93;16.93;;;;;;;;;;5015718;28;20924;-71
2023/08/01 07:15:55;;;;;;;22.13;15.27;;;;;;;;;;5015984;28;20447;-72
2023/08/01 07:18:22;;;;;;;27.77;15.80;;;;;;;;;;5015850;28;20446;-72
2023/08/01 07:20:50;;;;;;;22.73;15.90;;;;;;;;;;5015622;28;20479;-72
2023/08/01 07:23:18;;;;;;;19.57;14.80;;;;;;;;;;5016225;28;20450;-72
2023/08/01 07:25:46;;;;;;;22.83;15.03;;;;;;;;;;5015946;28;20574;-72
2023/08/01 07:28:13;;;;;;;20.80;14.77;;;;;;;;;;5015184;28;20449;-72
2023/08/01 07:30:40;;;;;;;24.77;15.50;;;;;;;;;;5015489;28;20813;-71
2023/08/01 07:33:07;;;;;;;25.40;13.73;;;;;;;;;;5015331;28;20439;-72
2023/08/01 07:35:34;;;;;;;23.47;13.90;;;;;;;;;;5015411;28;20443;-72
2023/08/01 07:38:02;;;;;;;19.00;13.30;;;;;;;;;;5015507;28;20815;-72
2023/08/01 07:40:30;;;;;;;24.37;13.27;;;;;;;;;;5016026;28;20528;-71
2023/08/01 07:42:59;;;;;;;16.43;13.50;;;;;;;;;;5015057;28;20569;-71
2023/08/01 07:45:26;;;;;;;21.57;13.57;;;;;;;;;;5015488;28;20540;-71
2023/08/01 07:47:54;;;;;;;20.67;12.27;;;;;;;;;;5015697;28;20439;-72
2023/08/01 07:50:21;;;;;;;18.70;12.50;;;;;;;;;;5015075;28;20526;-71
2023/08/01 07:52:48;;;;;;;20.13;12.27;;;;;;;;;;5015224;28;20528;-71
2023/08/01 07:55:16;;;;;;;22.07;12.43;;;;;;;;;;5015169;28;20602;-72
2023/08/01 07:57:45;;;;;;;18.97;11.80;;;;;;;;;;5014937;28;20451;-71
2023/08/01 08:00:13;;;;;;;14.87;12.57;;;;;;;;;;5015079;28;20536;-72
2023/08/01 08:02:40;;;;;;;13.37;12.07;;;;;;;;;;5015029;28;20569;-72
2023/08/01 08:05:08;;;;;;;23.00;11.93;;;;;;;;;;5014679;28;20535;-71
2023/08/01 08:07:35;;;;;;;21.07;12.50;;;;;;;;;;5014998;28;20567;-71
2023/08/01 08:10:04;;;;;;;15.83;11.80;;;;;;;;;;5014031;28;20927;-71
2023/08/01 08:12:31;;;;;;;15.03;11.83;;;;;;;;;;5014930;28;20488;-72
2023/08/01 08:15:00;;;;;;;18.30;12.70;;;;;;;;;;5014761;28;20439;-72
2023/08/01 08:17:27;;;;;;;15.43;11.10;;;;;;;;;;5014810;28;20439;-71
2023/08/01 08:19:54;;;;;;;15.80;11.00;;;;;;;;;;5014767;28;20534;-72
2023/08/01 08:22:21;;;;;;;13.50;10.63;;;;;;;;;;5014407;28;20485;-71
2023/08/01 08:24:49;;;;;;;16.20;10.60;;;;;;;;;;5014563;28;20981;-71
2023/08/01 08:27:17;;;;;;;15.90;11.43;;;;;;;;;;5014335;28;20846;-72
2023/08/01 08:29:44;;;;;;;14.80;9.57;;;;;;;;;;5014863;28;20439;-72
2023/08/01 08:32:12;;;;;;;14.00;10.20;;;;;;;;;;5013855;28;20943;-72
2023/08/01 08:34:40;;;;;;;11.13;9.80;;;;;;;;;;5014382;28;20520;-72
2023/08/01 08:37:07;;;;;;;15.33;8.43;;;;;;;;;;5014893;28;20442;-72
2023/08/01 08:39:34;;;;;;;11.23;8.93;;;;;;;;;;5014468;28;20442;-72
2023/08/01 08:42:05;;;;;;;11.40;10.20;;;;;;;;;;5013922;28;20479;-72
2023/08/01 08:44:34;;;;;;;16.03;8.60;;;;;;;;;;5014815;28;20844;-72
2023/08/01 08:47:04;;;;;;;11.40;8.70;;;;;;;;;;5015094;28;20451;-72
2023/08/01 08:49:33;;;;;;;19.83;8.10;;;;;;;;;;5014673;28;20423;-72
2023/08/01 08:52:02;;;;;;;14.93;9.43;;;;;;;;;;5014182;28;20553;-71
2023/08/01 08:54:30;;;;;;;12.03;8.50;;;;;;;;;;5013749;28;20448;-73
2023/08/01 08:56:57;;;;;;;14.03;7.20;;;;;;;;;;5014213;28;20995;-72
2023/08/01 08:59:26;;;;;;;9.33;7.40;;;;;;;;;;5013781;28;20442;-73
2023/08/01 09:01:54;;;;;;;11.70;7.57;;;;;;;;;;5014004;28;20899;-73
2023/08/01 09:04:21;;;;;;;8.50;7.60;;;;;;;;;;5014145;28;20450;-73
2023/08/01 09:06:51;;;;;;;9.53;6.63;;;;;;;;;;5014241;28;20439;-73
2023/08/01 09:09:18;;;;;;;7.87;7.07;;;;;;;;;;5014279;28;20522;-73
2023/08/01 09:11:47;;;;;;;11.10;7.50;;;;;;;;;;5013941;28;20436;-73
2023/08/01 09:14:14;;;;;;;11.77;8.03;;;;;;;;;;5014190;28;20533;-73
2023/08/01 09:16:42;;;;;;;11.03;7.20;;;;;;;;;;5013610;28;20537;-74
2023/08/01 09:19:14;;;;;;;9.17;6.50;;;;;;;;;;5013743;28;20449;-74
2023/08/01 09:21:41;;;;;;;11.70;7.17;;;;;;;;;;5013166;28;20970;-74
2023/08/01 09:24:13;;;;;;;9.63;6.87;;;;;;;;;;5013991;28;20525;-74
2023/08/01 09:26:41;;;;;;;9.63;6.90;;;;;;;;;;5013981;28;20477;-74
2023/08/01 09:29:08;;;;;;;10.20;7.33;;;;;;;;;;5013225;28;20522;-72
2023/08/01 09:31:37;;;;;;;7.20;6.00;;;;;;;;;;5013633;28;20448;-71
2023/08/01 09:34:06;;;;;;;7.93;7.13;;;;;;;;;;5013345;28;20435;-71
2023/08/01 09:36:33;;;;;;;9.50;6.80;;;;;;;;;;5013538;28;20504;-71
2023/08/01 09:39:01;;;;;;;7.00;6.33;;;;;;;;;;5013284;28;20860;-73
2023/08/01 09:41:30;;;;;;;8.07;6.40;;;;;;;;;;5013132;28;20447;-73
2023/08/01 09:43:57;;;;;;;7.37;6.57;;;;;;;;;;5013595;28;20526;-73
2023/08/01 09:46:24;;;;;;;8.27;6.40;;;;;;;;;;5013497;28;20446;-71
2023/08/01 09:48:51;;;;;;;12.73;6.70;;;;;;;;;;5013148;28;20542;-71
2023/08/01 09:51:19;;;;;;;6.10;5.50;;;;;;;;;;5013109;28;20442;-74
2023/08/01 09:53:52;;;;;;;11.03;4.93;;;;;;;;;;5014002;28;20554;-73
2023/08/01 09:56:20;;;;;;;9.73;4.37;;;;;;;;;;5013560;28;20796;-73
2023/08/01 09:58:49;;;;;;;11.13;4.77;;;;;;;;;;5013412;28;20454;-73
2023/08/01 10:01:16;;;;;;;8.13;5.00;;;;;;;;;;5013415;28;20543;-74
2023/08/01 10:03:47;;;;;;;8.60;4.20;;;;;;;;;;5013331;28;20493;-74
2023/08/01 10:06:15;;;;;;;11.87;4.50;;;;;;;;;;5013018;28;20439;-74
2023/08/01 10:08:43;;;;;;;5.53;4.70;;;;;;;;;;5013269;28;20513;-72
2023/08/01 10:11:10;;;;;;;8.07;4.00;;;;;;;;;;5012871;28;20442;-72
2023/08/01 10:13:38;;;;;;;7.87;4.87;;;;;;;;;;5013428;28;20459;-72
2023/08/01 10:16:07;;;;;;;15.40;5.03;;;;;;;;;;5013200;28;20866;-71
2023/08/01 10:18:37;;;;;;;6.17;5.33;;;;;;;;;;5013234;28;20445;-71
2023/08/01 10:21:04;;;;;;;7.60;5.53;;;;;;;;;;5013343;28;20440;-71
2023/08/01 10:23:32;;;;;;;11.57;5.57;;;;;;;;;;5013995;28;20482;-71
2023/08/01 10:26:00;;;;;;;6.20;4.80;;;;;;;;;;5012626;28;20564;-71
2023/08/01 10:28:33;;;;;;;9.87;6.03;;;;;;;;;;5013132;28;20807;-71
2023/08/01 10:31:12;;;;;;;6.93;4.97;;;;;;;;;;5012980;28;20532;-70
2023/08/01 10:33:39;;;;;;;6.80;4.73;;;;;;;;;;5015699;28;20493;-71
2023/08/01 10:36:17;;;;;;;3.97;3.57;;;;;;;;;;5016597;28;20451;-71
2023/08/01 10:38:50;;;;;;;6.50;3.70;;;;;;;;;;5016577;28;20443;-70
2023/08/01 10:41:22;;;;;;;6.70;3.50;;;;;;;;;;5016123;28;20445;-71
2023/08/01 10:43:49;;;;;;;8.73;4.73;;;;;;;;;;5016276;28;20974;-71
2023/08/01 10:46:17;;;;;;;4.87;4.47;;;;;;;;;;5017145;28;20452;-71
2023/08/01 10:48:51;;;;;;;5.57;3.93;;;;;;;;;;5016299;28;20532;-71
2023/08/01 10:51:18;;;;;;;7.60;4.83;;;;;;;;;;5016179;28;20439;-71
2023/08/01 10:53:46;;;;;;;6.77;4.20;;;;;;;;;;5016516;28;20456;-71
2023/08/01 10:56:18;;;;;;;6.60;4.63;;;;;;;;;;5016159;28;20478;-71
2023/08/01 10:58:45;;;;;;;7.70;5.23;;;;;;;;;;5016149;28;20427;-71
2023/08/01 11:01:12;;;;;;;8.57;5.10;;;;;;;;;;5016174;28;20451;-71
2023/08/01 11:03:42;;;;;;;8.53;4.57;;;;;;;;;;5016138;28;20907;-71
2023/08/01 11:06:09;;;;;;;11.90;5.63;;;;;;;;;;5016014;28;20530;-71
2023/08/01 11:08:37;;;;;;;9.10;5.03;;;;;;;;;;5016019;28;20443;-70
2023/08/01 11:11:06;;;;;;;8.27;4.70;;;;;;;;;;5016033;28;20537;-71
2023/08/01 11:13:34;;;;;;;7.27;4.70;;;;;;;;;;5016280;28;20448;-71
2023/08/01 11:16:02;;;;;;;5.70;4.40;;;;;;;;;;5015985;28;20448;-72
2023/08/01 11:18:30;;;;;;;5.40;4.17;;;;;;;;;;5015925;28;20455;-72
2023/08/01 11:20:59;;;;;;;7.33;4.53;;;;;;;;;;5015662;28;20455;-73
2023/08/01 11:23:30;;;;;;;6.80;4.40;;;;;;;;;;5015480;28;20576;-73
2023/08/01 11:25:57;;;;;;;7.40;3.87;;;;;;;;;;5015276;28;20581;-73
2023/08/01 11:28:25;;;;;;;5.03;3.83;;;;;;;;;;5015853;28;20493;-74
2023/08/01 11:30:52;;;;;;;6.20;3.83;;;;;;;;;;5015468;28;20533;-73
2023/08/01 11:33:21;;;;;;;7.10;3.60;;;;;;;;;;5015739;28;20796;-74
2023/08/01 11:35:51;;;;;;;3.97;3.50;;;;;;;;;;5015396;28;20435;-74
2023/08/01 11:38:20;;;;;;;7.77;3.97;;;;;;;;;;5015997;28;20424;-74
2023/08/01 11:40:49;;;;;;;5.30;3.70;;;;;;;;;;5015391;28;20531;-76
2023/08/01 11:43:16;;;;;;;6.00;3.70;;;;;;;;;;5015612;28;20864;-73
2023/08/01 11:45:50;;;;;;;3.83;3.40;;;;;;;;;;5014401;28;20454;-70
2023/08/01 11:48:18;;;;;;;5.40;4.17;;;;;;;;;;5015512;28;20475;-72
2023/08/01 11:50:45;;;;;;;4.90;3.50;;;;;;;;;;5015330;28;20851;-72
2023/08/01 11:53:21;;;;;;;7.10;4.30;;;;;;;;;;5017944;28;20858;-73
2023/08/01 11:55:49;;;;;;;4.17;2.77;;;;;;;;;;5021682;28;20466;-72
2023/08/01 11:58:16;;;;;;;5.70;3.00;;;;;;;;;;5033985;28;20454;-74
2023/08/01 12:00:43;;;;;;;5.23;2.90;;;;;;;;;;5033980;28;20452;-74
2023/08/01 12:03:13;;;;;;;2.60;2.40;;;;;;;;;;5034181;28;20567;-74
2023/08/01 12:05:45;;;;;;;5.60;2.60;;;;;;;;;;5033784;28;20521;-74
2023/08/01 12:08:13;;;;;;;5.63;3.03;;;;;;;;;;5034551;28;20883;-72
2023/08/01 12:10:42;;;;;;;6.80;2.97;;;;;;;;;;5034868;28;20553;-75
2023/08/01 12:13:20;;;;;;;4.80;3.60;;;;;;;;;;5034309;28;20477;-73
2023/08/01 12:15:48;;;;;;;5.00;3.37;;;;;;;;;;5034708;28;20430;-75
2023/08/01 12:18:21;;;;;;;5.10;3.23;;;;;;;;;;5033940;28;20445;-72
2023/08/01 12:20:48;;;;;;;9.80;3.43;;;;;;;;;;5034896;28;20524;-74
2023/08/01 12:23:15;;;;;;;4.07;3.53;;;;;;;;;;5034296;28;20850;-74
2023/08/01 12:25:44;;;;;;;4.73;3.70;;;;;;;;;;5020385;28;21009;-74
2023/08/01 12:28:11;;;;;;;3.63;3.20;;;;;;;;;;5014454;28;20437;-75
2023/08/01 12:30:41;;;;;;;3.73;2.93;;;;;;;;;;5014721;28;20452;-73
2023/08/01 12:33:08;;;;;;;4.00;3.07;;;;;;;;;;5014011;28;20451;-73
2023/08/01 12:35:35;;;;;;;4.90;3.20;;;;;;;;;;5014655;28;20501;-73
2023/08/01 12:38:02;;;;;;;6.47;2.93;;;;;;;;;;5014160;28;20527;-73
2023/08/01 12:40:30;;;;;;;3.97;3.37;;;;;;;;;;5014069;28;20486;-76
2023/08/01 12:42:58;;;;;;;4.33;3.10;;;;;;;;;;5014214;28;20563;-75
2023/08/01 12:45:26;;;;;;;4.37;2.70;;;;;;;;;;5014232;28;20846;-73
2023/08/01 12:47:53;;;;;;;4.30;3.30;;;;;;;;;;5014309;28;20526;-75
2023/08/01 12:50:20;;;;;;;5.10;3.83;;;;;;;;;;5013812;28;20447;-75
2023/08/01 12:52:47;;;;;;;4.60;3.20;;;;;;;;;;5013531;28;20537;-75
2023/08/01 12:55:14;;;;;;;6.03;3.10;;;;;;;;;;5013462;28;20873;-76
2023/08/01 12:57:43;;;;;;;4.63;3.10;;;;;;;;;;5014026;28;20439;-74
2023/08/01 13:00:12;;;;;;;5.10;2.93;;;;;;;;;;5014173;28;20486;-76
2023/08/01 13:02:39;;;;;;;6.97;3.50;;;;;;;;;;5014107;28;20512;-76
2023/08/01 13:05:07;;;;;;;5.50;3.37;;;;;;;;;;5014172;28;20479;-76
2023/08/01 13:07:34;;;;;;;10.97;5.03;;;;;;;;;;5013799;28;20795;-78
2023/08/01 13:10:01;;;;;;;7.37;3.33;;;;;;;;;;5013192;28;20482;-79
2023/08/01 13:12:29;;;;;;;9.27;3.60;;;;;;;;;;5013099;28;20478;-76
2023/08/01 13:14:56;;;;;;;8.33;4.20;;;;;;;;;;5013934;28;20490;-76
2023/08/01 13:17:25;;;;;;;7.50;3.53;;;;;;;;;;5013344;28;20443;-80
2023/08/01 13:19:52;;;;;;;5.80;2.80;;;;;;;;;;5014131;28;20427;-77
2023/08/01 13:22:19;;;;;;;3.40;2.90;;;;;;;;;;5013505;28;20445;-82
2023/08/01 13:24:47;;;;;;;4.33;2.50;;;;;;;;;;5013320;28;20585;-77
2023/08/01 13:27:14;;;;;;;5.90;2.50;;;;;;;;;;5013574;28;20925;-82
2023/08/01 13:29:41;;;;;;;11.47;2.93;;;;;;;;;;5012913;28;20449;-82
2023/08/01 13:32:09;;;;;;;3.40;2.53;;;;;;;;;;5012372;28;20453;-83
2023/08/01 13:34:38;;;;;;;3.00;2.10;;;;;;;;;;5013164;28;20518;-78
2023/08/01 13:37:05;;;;;;;4.47;2.80;;;;;;;;;;5013862;28;20439;-82
2023/08/01 13:39:32;;;;;;;4.57;2.20;;;;;;;;;;5012589;28;20523;-79
2023/08/01 13:42:00;;;;;;;4.00;2.70;;;;;;;;;;5013041;28;20896;-78
2023/08/01 13:44:27;;;;;;;6.90;2.50;;;;;;;;;;5013244;28;20566;-79
2023/08/01 13:46:54;;;;;;;3.20;2.57;;;;;;;;;;5013069;28;20486;-79
2023/08/01 13:49:21;;;;;;;6.93;2.87;;;;;;;;;;5012773;28;20444;-79
2023/08/01 13:51:50;;;;;;;5.20;2.50;;;;;;;;;;5012680;28;20937;-79
2023/08/01 13:54:17;;;;;;;5.20;2.50;;;;;;;;;;5013126;28;20510;-80
2023/08/01 13:56:44;;;;;;;3.50;3.20;;;;;;;;;;5013134;28;20452;-82
2023/08/01 13:59:11;;;;;;;5.67;3.17;;;;;;;;;;5012952;28;20437;-82
2023/08/01 14:01:38;;;;;;;4.53;2.93;;;;;;;;;;5013135;28;20519;-81
2023/08/01 14:04:06;;;;;;;4.33;2.70;;;;;;;;;;5013082;28;20832;-81
2023/08/01 14:06:33;;;;;;;3.93;2.13;;;;;;;;;;5013117;28;20537;-81
2023/08/01 14:09:02;;;;;;;7.60;2.67;;;;;;;;;;5015972;28;20442;-79
2023/08/01 14:11:29;;;;;;;4.80;2.50;;;;;;;;;;5016923;28;20819;-80
2023/08/01 14:13:57;;;;;;;4.90;2.33;;;;;;;;;;5017170;28;20512;-82
2023/08/01 14:16:24;;;;;;;4.87;2.97;;;;;;;;;;5016940;28;20448;-81
2023/08/01 14:18:51;;;;;;;3.27;2.40;;;;;;;;;;5016363;28;20482;-74
2023/08/01 14:21:18;;;;;;;6.63;3.03;;;;;;;;;;5016735;28;20974;-80
2023/08/01 14:23:46;;;;;;;3.70;2.60;;;;;;;;;;5016762;28;20491;-75
2023/08/01 14:26:14;;;;;;;6.07;2.83;;;;;;;;;;5016363;28;20472;-75
2023/08/01 14:28:41;;;;;;;4.33;2.67;;;;;;;;;;5016604;28;20459;-78
2023/08/01 14:31:09;;;;;;;7.47;2.73;;;;;;;;;;5016140;28;20475;-77
2023/08/01 14:33:36;;;;;;;4.60;2.83;;;;;;;;;;5016395;28;20463;-77
2023/08/01 14:36:04;;;;;;;7.70;3.10;;;;;;;;;;5016505;28;20451;-76
2023/08/01 14:38:31;;;;;;;6.03;2.77;;;;;;;;;;5016558;28;20875;-77